KOAK/OAK METAR and TAF weather

Enter ICAO airport designator
Station Type Date Time Source
KOAK METAR 2019/11/18 13:53 UTC NOAA

KOAK 181353Z 08004KT 10SM CLR 08/04 A2998 RMK AO2 SLP152 T00780044 $


Station Type Date Time Source
KOAK Decoded METAR 2019/11/18 13:53 UTC NOAA

METRO OAKLAND INTERNATIONAL AIRPORT , CA, United States (KOAK) 37-43N 122-14W 26M
Nov 18, 2019 - 08:53 AM EST / 2019.11.18 1353 UTC
Wind: from the E (080 degrees) at 5 MPH (4 KT):0
Visibility: 10 mile(s):0
Sky conditions: clear
Temperature: 46.0 F (7.8 C)
Dew Point: 39.9 F (4.4 C)
Relative Humidity: 79%
Pressure (altimeter): 29.98 in. Hg (1015 hPa)
ob: KOAK 181353Z 08004KT 10SM CLR 08/04 A2998 RMK AO2 SLP152 T00780044
cycle: 14

Station Type Date Time Source
KOAK TAF 2019/11/18 12:40 UTC NOAA

TAF KOAK 181138Z 1812/1918 VRB04KT P6SM SKC
FM181800 28005KT P6SM FEW250
FM182100 29010KT P6SM FEW008 SCT250
FM190300 29008KT P6SM SCT008 BKN250
TEMPO 1907/1910 BKN008 OVC035
FM191100 29014KT P6SM SCT015 BKN035
FM191600 31008KT P6SM SCT015 BKN035

Example: see airport list